sensor_id;sensor_type;location;lat;lon;timestamp;P1;durP1;ratioP1;P2;durP2;ratioP2
74630;SDS011;63138;55.082;38.804;2022-11-02T00:02:08;8.65;;;5.07;;
74630;SDS011;63138;55.082;38.804;2022-11-02T00:04:34;10.38;;;5.30;;
74630;SDS011;63138;55.082;38.804;2022-11-02T00:07:00;9.43;;;4.90;;
74630;SDS011;63138;55.082;38.804;2022-11-02T00:09:26;10.93;;;5.65;;
74630;SDS011;63138;55.082;38.804;2022-11-02T00:11:51;9.87;;;5.97;;
74630;SDS011;63138;55.082;38.804;2022-11-02T00:14:17;8.73;;;4.85;;
74630;SDS011;63138;55.082;38.804;2022-11-02T00:16:43;9.30;;;5.33;;
74630;SDS011;63138;55.082;38.804;2022-11-02T00:19:08;9.43;;;5.80;;
74630;SDS011;63138;55.082;38.804;2022-11-02T00:21:34;17.13;;;5.87;;
74630;SDS011;63138;55.082;38.804;2022-11-02T00:24:01;9.68;;;5.40;;
74630;SDS011;63138;55.082;38.804;2022-11-02T00:26:30;10.75;;;5.97;;
74630;SDS011;63138;55.082;38.804;2022-11-02T00:29:00;9.30;;;5.93;;
74630;SDS011;63138;55.082;38.804;2022-11-02T00:31:26;9.77;;;5.97;;
74630;SDS011;63138;55.082;38.804;2022-11-02T00:33:51;9.90;;;5.90;;
74630;SDS011;63138;55.082;38.804;2022-11-02T00:36:17;9.53;;;6.03;;
74630;SDS011;63138;55.082;38.804;2022-11-02T00:38:43;8.45;;;5.72;;
74630;SDS011;63138;55.082;38.804;2022-11-02T00:41:08;14.10;;;6.20;;
74630;SDS011;63138;55.082;38.804;2022-11-02T00:43:34;9.10;;;5.15;;
74630;SDS011;63138;55.082;38.804;2022-11-02T00:46:00;12.13;;;5.97;;
74630;SDS011;63138;55.082;38.804;2022-11-02T00:48:26;13.05;;;6.65;;
74630;SDS011;63138;55.082;38.804;2022-11-02T00:50:52;9.13;;;5.57;;
74630;SDS011;63138;55.082;38.804;2022-11-02T00:53:21;9.93;;;6.35;;
74630;SDS011;63138;55.082;38.804;2022-11-02T00:55:50;10.07;;;5.13;;
74630;SDS011;63138;55.082;38.804;2022-11-02T00:58:18;9.93;;;5.90;;
74630;SDS011;63138;55.082;38.804;2022-11-02T01:00:44;12.50;;;7.00;;
74630;SDS011;63138;55.082;38.804;2022-11-02T01:03:10;12.57;;;6.57;;
74630;SDS011;63138;55.082;38.804;2022-11-02T01:05:36;9.20;;;5.75;;
74630;SDS011;63138;55.082;38.804;2022-11-02T01:08:02;9.00;;;4.17;;
74630;SDS011;63138;55.082;38.804;2022-11-02T01:10:28;9.75;;;6.28;;
74630;SDS011;63138;55.082;38.804;2022-11-02T01:12:54;10.75;;;6.15;;
74630;SDS011;63138;55.082;38.804;2022-11-02T01:15:20;9.47;;;6.40;;
74630;SDS011;63138;55.082;38.804;2022-11-02T01:17:46;11.30;;;5.03;;
74630;SDS011;63138;55.082;38.804;2022-11-02T01:20:11;12.70;;;6.00;;
74630;SDS011;63138;55.082;38.804;2022-11-02T01:22:37;8.97;;;4.53;;
74630;SDS011;63138;55.082;38.804;2022-11-02T01:25:04;11.40;;;4.30;;
74630;SDS011;63138;55.082;38.804;2022-11-02T01:27:29;6.95;;;3.78;;
74630;SDS011;63138;55.082;38.804;2022-11-02T01:29:55;6.03;;;3.13;;
74630;SDS011;63138;55.082;38.804;2022-11-02T01:32:21;9.60;;;5.25;;
74630;SDS011;63138;55.082;38.804;2022-11-02T01:34:47;8.57;;;3.67;;
74630;SDS011;63138;55.082;38.804;2022-11-02T01:37:16;6.60;;;3.95;;
74630;SDS011;63138;55.082;38.804;2022-11-02T01:39:44;7.78;;;4.57;;
74630;SDS011;63138;55.082;38.804;2022-11-02T01:42:19;6.43;;;3.33;;
74630;SDS011;63138;55.082;38.804;2022-11-02T01:44:47;7.15;;;3.45;;
74630;SDS011;63138;55.082;38.804;2022-11-02T01:47:16;6.00;;;3.03;;
74630;SDS011;63138;55.082;38.804;2022-11-02T01:49:51;5.70;;;2.60;;
74630;SDS011;63138;55.082;38.804;2022-11-02T01:52:23;6.28;;;3.53;;
74630;SDS011;63138;55.082;38.804;2022-11-02T01:55:38;8.73;;;3.83;;
74630;SDS011;63138;55.082;38.804;2022-11-02T01:57:42;8.48;;;3.97;;
74630;SDS011;63138;55.082;38.804;2022-11-02T02:00:13;7.63;;;3.47;;
74630;SDS011;63138;55.082;38.804;2022-11-02T02:02:51;7.33;;;3.63;;
74630;SDS011;63138;55.082;38.804;2022-11-02T02:05:21;7.35;;;3.10;;
74630;SDS011;63138;55.082;38.804;2022-11-02T02:07:49;6.47;;;3.65;;
74630;SDS011;63138;55.082;38.804;2022-11-02T02:10:16;7.05;;;2.92;;
74630;SDS011;63138;55.082;38.804;2022-11-02T02:12:42;6.30;;;3.40;;
74630;SDS011;63138;55.082;38.804;2022-11-02T02:15:09;6.53;;;3.07;;
74630;SDS011;63138;55.082;38.804;2022-11-02T02:17:54;6.43;;;2.88;;
74630;SDS011;63138;55.082;38.804;2022-11-02T02:20:36;8.23;;;3.53;;
74630;SDS011;63138;55.082;38.804;2022-11-02T02:29:23;6.83;;;3.00;;
74630;SDS011;63138;55.082;38.804;2022-11-02T02:32:32;4.85;;;2.70;;
74630;SDS011;63138;55.082;38.804;2022-11-02T02:35:50;6.68;;;3.50;;
74630;SDS011;63138;55.082;38.804;2022-11-02T02:38:03;6.75;;;3.38;;
74630;SDS011;63138;55.082;38.804;2022-11-02T02:43:17;6.83;;;3.50;;
74630;SDS011;63138;55.082;38.804;2022-11-02T02:45:54;11.00;;;4.25;;
74630;SDS011;63138;55.082;38.804;2022-11-02T02:48:26;8.57;;;4.68;;
74630;SDS011;63138;55.082;38.804;2022-11-02T02:50:59;10.75;;;5.05;;
74630;SDS011;63138;55.082;38.804;2022-11-02T02:53:32;12.85;;;5.40;;
74630;SDS011;63138;55.082;38.804;2022-11-02T02:56:13;13.70;;;6.60;;
74630;SDS011;63138;55.082;38.804;2022-11-02T02:58:54;14.07;;;6.50;;
74630;SDS011;63138;55.082;38.804;2022-11-02T03:01:25;8.65;;;4.63;;
74630;SDS011;63138;55.082;38.804;2022-11-02T03:03:53;16.17;;;6.90;;
74630;SDS011;63138;55.082;38.804;2022-11-02T03:06:21;15.30;;;6.22;;
74630;SDS011;63138;55.082;38.804;2022-11-02T03:11:54;10.93;;;5.63;;
74630;SDS011;63138;55.082;38.804;2022-11-02T03:17:16;14.40;;;7.80;;
74630;SDS011;63138;55.082;38.804;2022-11-02T03:20:01;14.05;;;7.40;;
74630;SDS011;63138;55.082;38.804;2022-11-02T03:22:31;15.27;;;7.73;;
74630;SDS011;63138;55.082;38.804;2022-11-02T03:25:07;14.38;;;8.10;;
74630;SDS011;63138;55.082;38.804;2022-11-02T03:28:03;14.10;;;7.00;;
74630;SDS011;63138;55.082;38.804;2022-11-02T03:30:48;13.13;;;7.10;;
74630;SDS011;63138;55.082;38.804;2022-11-02T03:33:21;12.55;;;6.82;;
74630;SDS011;63138;55.082;38.804;2022-11-02T03:36:07;15.50;;;7.93;;
74630;SDS011;63138;55.082;38.804;2022-11-02T03:38:40;15.45;;;7.57;;
74630;SDS011;63138;55.082;38.804;2022-11-02T03:41:11;16.48;;;8.20;;
74630;SDS011;63138;55.082;38.804;2022-11-02T03:43:40;12.75;;;6.18;;
74630;SDS011;63138;55.082;38.804;2022-11-02T03:46:07;11.80;;;6.47;;
74630;SDS011;63138;55.082;38.804;2022-11-02T03:48:40;14.13;;;6.80;;
74630;SDS011;63138;55.082;38.804;2022-11-02T03:51:13;10.82;;;3.65;;
74630;SDS011;63138;55.082;38.804;2022-11-02T03:53:43;12.30;;;6.40;;
74630;SDS011;63138;55.082;38.804;2022-11-02T03:59:21;12.98;;;6.18;;
74630;SDS011;63138;55.082;38.804;2022-11-02T04:01:49;10.03;;;5.50;;
74630;SDS011;63138;55.082;38.804;2022-11-02T04:04:18;10.10;;;5.88;;
74630;SDS011;63138;55.082;38.804;2022-11-02T04:06:45;9.70;;;5.38;;
74630;SDS011;63138;55.082;38.804;2022-11-02T04:09:15;13.88;;;6.35;;
74630;SDS011;63138;55.082;38.804;2022-11-02T04:11:41;11.80;;;6.63;;
74630;SDS011;63138;55.082;38.804;2022-11-02T04:14:28;10.60;;;5.82;;
74630;SDS011;63138;55.082;38.804;2022-11-02T04:17:04;10.35;;;5.65;;
74630;SDS011;63138;55.082;38.804;2022-11-02T04:19:52;10.70;;;5.45;;
74630;SDS011;63138;55.082;38.804;2022-11-02T04:22:20;13.02;;;6.07;;
74630;SDS011;63138;55.082;38.804;2022-11-02T04:25:10;11.73;;;5.87;;
74630;SDS011;63138;55.082;38.804;2022-11-02T04:28:22;12.02;;;5.45;;
74630;SDS011;63138;55.082;38.804;2022-11-02T04:30:53;18.85;;;8.90;;
74630;SDS011;63138;55.082;38.804;2022-11-02T04:33:22;16.63;;;7.45;;
74630;SDS011;63138;55.082;38.804;2022-11-02T04:36:04;12.85;;;6.55;;
74630;SDS011;63138;55.082;38.804;2022-11-02T04:38:32;12.20;;;6.73;;
74630;SDS011;63138;55.082;38.804;2022-11-02T04:41:17;10.18;;;6.88;;
74630;SDS011;63138;55.082;38.804;2022-11-02T04:44:07;13.25;;;8.13;;
74630;SDS011;63138;55.082;38.804;2022-11-02T04:46:35;11.32;;;7.28;;
74630;SDS011;63138;55.082;38.804;2022-11-02T04:49:02;14.65;;;8.75;;
74630;SDS011;63138;55.082;38.804;2022-11-02T04:51:31;15.77;;;8.23;;
74630;SDS011;63138;55.082;38.804;2022-11-02T04:53:59;10.80;;;5.97;;
74630;SDS011;63138;55.082;38.804;2022-11-02T04:56:27;14.40;;;7.45;;
74630;SDS011;63138;55.082;38.804;2022-11-02T04:58:55;13.50;;;8.32;;
74630;SDS011;63138;55.082;38.804;2022-11-02T05:01:23;14.02;;;8.70;;
74630;SDS011;63138;55.082;38.804;2022-11-02T05:03:51;14.40;;;7.67;;
74630;SDS011;63138;55.082;38.804;2022-11-02T05:06:19;13.15;;;7.65;;
74630;SDS011;63138;55.082;38.804;2022-11-02T05:08:48;14.98;;;8.40;;
74630;SDS011;63138;55.082;38.804;2022-11-02T05:11:14;19.55;;;9.20;;
74630;SDS011;63138;55.082;38.804;2022-11-02T05:13:40;14.27;;;8.80;;
74630;SDS011;63138;55.082;38.804;2022-11-02T05:16:09;16.47;;;7.40;;
74630;SDS011;63138;55.082;38.804;2022-11-02T05:18:36;13.75;;;8.38;;
74630;SDS011;63138;55.082;38.804;2022-11-02T05:21:02;10.38;;;6.63;;
74630;SDS011;63138;55.082;38.804;2022-11-02T05:23:29;16.13;;;8.13;;
74630;SDS011;63138;55.082;38.804;2022-11-02T05:25:57;12.00;;;7.53;;
74630;SDS011;63138;55.082;38.804;2022-11-02T05:28:26;15.23;;;9.15;;
74630;SDS011;63138;55.082;38.804;2022-11-02T05:30:53;16.30;;;8.95;;
74630;SDS011;63138;55.082;38.804;2022-11-02T05:33:19;17.52;;;9.55;;
74630;SDS011;63138;55.082;38.804;2022-11-02T05:35:46;17.02;;;10.40;;
74630;SDS011;63138;55.082;38.804;2022-11-02T05:38:12;19.40;;;10.10;;
74630;SDS011;63138;55.082;38.804;2022-11-02T05:40:38;16.40;;;7.85;;
74630;SDS011;63138;55.082;38.804;2022-11-02T05:43:07;21.90;;;11.25;;
74630;SDS011;63138;55.082;38.804;2022-11-02T05:45:35;23.00;;;13.20;;
74630;SDS011;63138;55.082;38.804;2022-11-02T05:48:01;26.20;;;12.90;;
74630;SDS011;63138;55.082;38.804;2022-11-02T05:50:31;22.42;;;11.73;;
74630;SDS011;63138;55.082;38.804;2022-11-02T05:52:59;20.33;;;10.90;;
74630;SDS011;63138;55.082;38.804;2022-11-02T05:55:25;24.30;;;11.77;;
74630;SDS011;63138;55.082;38.804;2022-11-02T05:57:51;25.05;;;13.05;;
74630;SDS011;63138;55.082;38.804;2022-11-02T06:00:18;18.65;;;11.23;;
74630;SDS011;63138;55.082;38.804;2022-11-02T06:02:45;23.30;;;12.18;;
74630;SDS011;63138;55.082;38.804;2022-11-02T06:05:11;20.95;;;11.52;;
74630;SDS011;63138;55.082;38.804;2022-11-02T06:07:37;21.77;;;11.27;;
74630;SDS011;63138;55.082;38.804;2022-11-02T06:10:03;18.92;;;11.00;;
74630;SDS011;63138;55.082;38.804;2022-11-02T06:12:29;17.73;;;9.53;;
74630;SDS011;63138;55.082;38.804;2022-11-02T06:14:54;15.88;;;8.70;;
74630;SDS011;63138;55.082;38.804;2022-11-02T06:17:20;16.15;;;9.25;;
74630;SDS011;63138;55.082;38.804;2022-11-02T06:19:46;20.23;;;9.47;;
74630;SDS011;63138;55.082;38.804;2022-11-02T06:22:11;17.17;;;9.30;;
74630;SDS011;63138;55.082;38.804;2022-11-02T06:24:37;20.33;;;8.73;;
74630;SDS011;63138;55.082;38.804;2022-11-02T06:27:03;14.05;;;7.00;;
74630;SDS011;63138;55.082;38.804;2022-11-02T06:29:29;9.07;;;5.03;;
74630;SDS011;63138;55.082;38.804;2022-11-02T06:31:55;4.78;;;2.47;;
74630;SDS011;63138;55.082;38.804;2022-11-02T06:34:21;7.43;;;3.53;;
74630;SDS011;63138;55.082;38.804;2022-11-02T06:36:47;4.83;;;2.77;;
74630;SDS011;63138;55.082;38.804;2022-11-02T06:39:12;6.50;;;3.37;;
74630;SDS011;63138;55.082;38.804;2022-11-02T06:41:38;7.63;;;3.80;;
74630;SDS011;63138;55.082;38.804;2022-11-02T06:44:04;6.55;;;4.05;;
74630;SDS011;63138;55.082;38.804;2022-11-02T06:46:30;7.30;;;3.72;;
74630;SDS011;63138;55.082;38.804;2022-11-02T06:48:56;5.77;;;3.20;;
74630;SDS011;63138;55.082;38.804;2022-11-02T06:51:23;4.67;;;2.77;;
74630;SDS011;63138;55.082;38.804;2022-11-02T06:53:49;6.55;;;4.00;;
74630;SDS011;63138;55.082;38.804;2022-11-02T06:56:14;4.65;;;2.78;;
74630;SDS011;63138;55.082;38.804;2022-11-02T06:58:40;10.57;;;3.47;;
74630;SDS011;63138;55.082;38.804;2022-11-02T07:01:07;6.63;;;3.65;;
74630;SDS011;63138;55.082;38.804;2022-11-02T07:03:33;5.68;;;3.22;;
74630;SDS011;63138;55.082;38.804;2022-11-02T07:06:00;9.43;;;3.72;;
74630;SDS011;63138;55.082;38.804;2022-11-02T07:08:27;7.60;;;3.13;;
74630;SDS011;63138;55.082;38.804;2022-11-02T07:10:54;7.50;;;3.47;;
74630;SDS011;63138;55.082;38.804;2022-11-02T07:13:21;6.45;;;2.92;;
74630;SDS011;63138;55.082;38.804;2022-11-02T07:15:49;8.25;;;3.00;;
74630;SDS011;63138;55.082;38.804;2022-11-02T07:18:17;5.38;;;2.72;;
74630;SDS011;63138;55.082;38.804;2022-11-02T07:20:43;4.15;;;2.28;;
74630;SDS011;63138;55.082;38.804;2022-11-02T07:23:09;4.87;;;2.80;;
74630;SDS011;63138;55.082;38.804;2022-11-02T07:25:35;4.55;;;2.67;;
74630;SDS011;63138;55.082;38.804;2022-11-02T07:28:02;4.88;;;3.35;;
74630;SDS011;63138;55.082;38.804;2022-11-02T07:30:28;4.93;;;2.33;;
74630;SDS011;63138;55.082;38.804;2022-11-02T07:32:55;6.90;;;3.25;;
74630;SDS011;63138;55.082;38.804;2022-11-02T07:35:22;6.65;;;2.50;;
74630;SDS011;63138;55.082;38.804;2022-11-02T07:37:59;5.57;;;3.10;;
74630;SDS011;63138;55.082;38.804;2022-11-02T07:40:29;5.72;;;2.72;;
74630;SDS011;63138;55.082;38.804;2022-11-02T07:42:56;8.77;;;3.93;;
74630;SDS011;63138;55.082;38.804;2022-11-02T07:45:36;4.78;;;2.85;;
74630;SDS011;63138;55.082;38.804;2022-11-02T07:48:02;5.13;;;2.70;;
74630;SDS011;63138;55.082;38.804;2022-11-02T07:50:28;4.70;;;2.65;;
74630;SDS011;63138;55.082;38.804;2022-11-02T07:52:56;4.93;;;3.15;;
74630;SDS011;63138;55.082;38.804;2022-11-02T07:55:23;3.93;;;2.33;;
74630;SDS011;63138;55.082;38.804;2022-11-02T08:00:20;5.80;;;3.13;;
74630;SDS011;63138;55.082;38.804;2022-11-02T08:02:47;4.97;;;3.08;;
74630;SDS011;63138;55.082;38.804;2022-11-02T08:05:13;5.10;;;3.13;;
74630;SDS011;63138;55.082;38.804;2022-11-02T08:07:39;5.38;;;3.10;;
74630;SDS011;63138;55.082;38.804;2022-11-02T08:10:06;6.38;;;2.92;;
74630;SDS011;63138;55.082;38.804;2022-11-02T08:12:32;6.93;;;3.38;;
74630;SDS011;63138;55.082;38.804;2022-11-02T08:14:58;7.32;;;3.28;;
74630;SDS011;63138;55.082;38.804;2022-11-02T08:17:24;6.73;;;3.10;;
74630;SDS011;63138;55.082;38.804;2022-11-02T08:19:50;6.07;;;3.65;;
74630;SDS011;63138;55.082;38.804;2022-11-02T08:22:17;5.55;;;2.92;;
74630;SDS011;63138;55.082;38.804;2022-11-02T08:24:42;6.85;;;3.10;;
74630;SDS011;63138;55.082;38.804;2022-11-02T08:27:08;5.43;;;2.50;;
74630;SDS011;63138;55.082;38.804;2022-11-02T08:29:34;5.70;;;3.03;;
74630;SDS011;63138;55.082;38.804;2022-11-02T08:32:01;6.03;;;3.28;;
74630;SDS011;63138;55.082;38.804;2022-11-02T08:34:27;7.07;;;3.03;;
74630;SDS011;63138;55.082;38.804;2022-11-02T08:36:53;8.65;;;3.55;;
74630;SDS011;63138;55.082;38.804;2022-11-02T08:39:19;7.93;;;3.27;;
74630;SDS011;63138;55.082;38.804;2022-11-02T08:41:46;4.85;;;3.00;;
74630;SDS011;63138;55.082;38.804;2022-11-02T08:44:12;7.90;;;3.80;;
74630;SDS011;63138;55.082;38.804;2022-11-02T08:47:59;10.00;;;3.70;;
74630;SDS011;63138;55.082;38.804;2022-11-02T08:51:02;7.13;;;3.50;;
74630;SDS011;63138;55.082;38.804;2022-11-02T08:53:33;6.87;;;3.47;;
74630;SDS011;63138;55.082;38.804;2022-11-02T08:56:06;4.55;;;3.15;;
74630;SDS011;63138;55.082;38.804;2022-11-02T08:58:32;5.22;;;3.28;;
74630;SDS011;63138;55.082;38.804;2022-11-02T09:00:58;5.13;;;3.00;;
74630;SDS011;63138;55.082;38.804;2022-11-02T09:03:24;6.57;;;3.70;;
74630;SDS011;63138;55.082;38.804;2022-11-02T09:05:54;9.30;;;4.15;;
74630;SDS011;63138;55.082;38.804;2022-11-02T09:08:22;7.07;;;4.22;;
74630;SDS011;63138;55.082;38.804;2022-11-02T09:10:49;4.13;;;2.65;;
74630;SDS011;63138;55.082;38.804;2022-11-02T09:13:16;7.93;;;4.68;;
74630;SDS011;63138;55.082;38.804;2022-11-02T09:15:47;7.33;;;3.60;;
74630;SDS011;63138;55.082;38.804;2022-11-02T09:18:14;6.68;;;3.80;;
74630;SDS011;63138;55.082;38.804;2022-11-02T09:20:40;6.28;;;2.75;;
74630;SDS011;63138;55.082;38.804;2022-11-02T09:23:10;12.73;;;6.25;;
74630;SDS011;63138;55.082;38.804;2022-11-02T09:25:36;11.00;;;5.00;;
74630;SDS011;63138;55.082;38.804;2022-11-02T09:28:02;8.57;;;4.07;;
74630;SDS011;63138;55.082;38.804;2022-11-02T09:30:28;8.20;;;3.97;;
74630;SDS011;63138;55.082;38.804;2022-11-02T09:33:01;10.82;;;4.93;;
74630;SDS011;63138;55.082;38.804;2022-11-02T09:35:29;9.50;;;4.82;;
74630;SDS011;63138;55.082;38.804;2022-11-02T09:37:57;8.90;;;4.10;;
74630;SDS011;63138;55.082;38.804;2022-11-02T09:40:24;10.43;;;4.00;;
74630;SDS011;63138;55.082;38.804;2022-11-02T09:45:34;10.52;;;4.18;;
74630;SDS011;63138;55.082;38.804;2022-11-02T09:48:11;6.55;;;2.80;;
74630;SDS011;63138;55.082;38.804;2022-11-02T09:54:17;8.70;;;4.20;;
74630;SDS011;63138;55.082;38.804;2022-11-02T09:56:25;8.10;;;4.00;;
74630;SDS011;63138;55.082;38.804;2022-11-02T09:58:55;6.05;;;3.40;;
74630;SDS011;63138;55.082;38.804;2022-11-02T10:07:08;11.77;;;5.13;;
74630;SDS011;63138;55.082;38.804;2022-11-02T10:09:56;7.18;;;3.47;;
74630;SDS011;63138;55.082;38.804;2022-11-02T10:18:25;9.37;;;3.83;;
74630;SDS011;63138;55.082;38.804;2022-11-02T10:20:53;10.18;;;3.47;;
74630;SDS011;63138;55.082;38.804;2022-11-02T10:23:30;7.97;;;3.45;;
74630;SDS011;63138;55.082;38.804;2022-11-02T10:25:58;10.40;;;4.30;;
74630;SDS011;63138;55.082;38.804;2022-11-02T10:28:30;7.35;;;4.07;;
74630;SDS011;63138;55.082;38.804;2022-11-02T10:31:02;11.47;;;4.90;;
74630;SDS011;63138;55.082;38.804;2022-11-02T10:33:29;6.72;;;4.20;;
74630;SDS011;63138;55.082;38.804;2022-11-02T10:36:08;6.15;;;3.47;;
74630;SDS011;63138;55.082;38.804;2022-11-02T10:47:05;11.30;;;5.05;;
74630;SDS011;63138;55.082;38.804;2022-11-02T10:49:44;7.95;;;4.55;;
74630;SDS011;63138;55.082;38.804;2022-11-02T10:52:14;7.47;;;4.10;;
74630;SDS011;63138;55.082;38.804;2022-11-02T10:54:42;6.90;;;4.30;;
74630;SDS011;63138;55.082;38.804;2022-11-02T10:57:10;7.35;;;4.38;;
74630;SDS011;63138;55.082;38.804;2022-11-02T10:59:37;13.75;;;5.13;;
74630;SDS011;63138;55.082;38.804;2022-11-02T11:02:07;9.13;;;4.80;;
74630;SDS011;63138;55.082;38.804;2022-11-02T11:04:37;10.90;;;4.80;;
74630;SDS011;63138;55.082;38.804;2022-11-02T11:07:17;7.23;;;4.70;;
74630;SDS011;63138;55.082;38.804;2022-11-02T11:09:51;10.70;;;6.20;;
74630;SDS011;63138;55.082;38.804;2022-11-02T11:12:25;12.60;;;8.07;;
74630;SDS011;63138;55.082;38.804;2022-11-02T11:14:56;14.70;;;6.88;;
74630;SDS011;63138;55.082;38.804;2022-11-02T11:17:31;11.23;;;5.68;;
74630;SDS011;63138;55.082;38.804;2022-11-02T11:19:59;13.93;;;6.27;;
74630;SDS011;63138;55.082;38.804;2022-11-02T11:22:27;12.32;;;6.68;;
74630;SDS011;63138;55.082;38.804;2022-11-02T11:27:45;19.70;;;7.13;;
74630;SDS011;63138;55.082;38.804;2022-11-02T11:32:50;17.30;;;8.90;;
74630;SDS011;63138;55.082;38.804;2022-11-02T11:35:16;14.43;;;8.20;;
74630;SDS011;63138;55.082;38.804;2022-11-02T11:37:51;17.55;;;8.15;;
74630;SDS011;63138;55.082;38.804;2022-11-02T11:40:20;20.70;;;9.45;;
74630;SDS011;63138;55.082;38.804;2022-11-02T11:42:48;15.50;;;9.23;;
74630;SDS011;63138;55.082;38.804;2022-11-02T11:45:20;14.43;;;8.07;;
74630;SDS011;63138;55.082;38.804;2022-11-02T11:47:50;15.23;;;8.13;;
74630;SDS011;63138;55.082;38.804;2022-11-02T11:50:21;15.30;;;8.95;;
74630;SDS011;63138;55.082;38.804;2022-11-02T11:53:05;24.05;;;11.65;;
74630;SDS011;63138;55.082;38.804;2022-11-02T11:55:53;18.48;;;9.50;;
74630;SDS011;63138;55.082;38.804;2022-11-02T11:58:27;18.20;;;8.77;;
74630;SDS011;63138;55.082;38.804;2022-11-02T12:03:55;14.07;;;7.57;;
74630;SDS011;63138;55.082;38.804;2022-11-02T12:09:31;11.75;;;6.93;;
74630;SDS011;63138;55.082;38.804;2022-11-02T12:31:55;17.38;;;7.57;;
74630;SDS011;63138;55.082;38.804;2022-11-02T12:34:51;9.95;;;6.40;;
74630;SDS011;63138;55.082;38.804;2022-11-02T12:46:31;14.82;;;7.13;;
74630;SDS011;63138;55.082;38.804;2022-11-02T12:49:07;13.35;;;6.22;;
74630;SDS011;63138;55.082;38.804;2022-11-02T12:54:41;13.20;;;7.30;;
74630;SDS011;63138;55.082;38.804;2022-11-02T12:57:21;17.05;;;8.50;;
74630;SDS011;63138;55.082;38.804;2022-11-02T12:59:49;13.23;;;7.10;;
74630;SDS011;63138;55.082;38.804;2022-11-02T13:02:23;10.90;;;6.50;;
74630;SDS011;63138;55.082;38.804;2022-11-02T13:05:19;16.02;;;9.48;;
74630;SDS011;63138;55.082;38.804;2022-11-02T13:10:20;14.63;;;7.85;;
74630;SDS011;63138;55.082;38.804;2022-11-02T13:12:50;11.82;;;7.03;;
74630;SDS011;63138;55.082;38.804;2022-11-02T13:15:19;14.25;;;7.22;;
74630;SDS011;63138;55.082;38.804;2022-11-02T13:17:48;17.95;;;9.07;;
74630;SDS011;63138;55.082;38.804;2022-11-02T13:25:54;13.27;;;7.78;;
74630;SDS011;63138;55.082;38.804;2022-11-02T13:28:32;15.55;;;7.43;;
74630;SDS011;63138;55.082;38.804;2022-11-02T13:31:20;16.60;;;8.30;;
74630;SDS011;63138;55.082;38.804;2022-11-02T13:33:57;16.27;;;7.27;;
74630;SDS011;63138;55.082;38.804;2022-11-02T13:36:26;15.93;;;7.57;;
74630;SDS011;63138;55.082;38.804;2022-11-02T13:38:55;14.23;;;6.53;;
74630;SDS011;63138;55.082;38.804;2022-11-02T13:44:22;8.30;;;5.15;;
74630;SDS011;63138;55.082;38.804;2022-11-02T13:50:28;16.65;;;7.80;;
74630;SDS011;63138;55.082;38.804;2022-11-02T13:52:58;12.57;;;6.28;;
74630;SDS011;63138;55.082;38.804;2022-11-02T13:58:12;10.57;;;5.60;;
74630;SDS011;63138;55.082;38.804;2022-11-02T14:01:00;10.43;;;5.37;;
74630;SDS011;63138;55.082;38.804;2022-11-02T14:03:30;7.70;;;4.45;;
74630;SDS011;63138;55.082;38.804;2022-11-02T14:06:21;11.70;;;6.00;;
74630;SDS011;63138;55.082;38.804;2022-11-02T14:08:58;9.90;;;4.88;;
74630;SDS011;63138;55.082;38.804;2022-11-02T14:11:35;14.77;;;7.45;;
74630;SDS011;63138;55.082;38.804;2022-11-02T14:14:20;17.33;;;8.07;;
74630;SDS011;63138;55.082;38.804;2022-11-02T14:21:43;13.83;;;7.03;;
74630;SDS011;63138;55.082;38.804;2022-11-02T14:29:47;27.35;;;11.35;;
74630;SDS011;63138;55.082;38.804;2022-11-02T14:49:13;22.13;;;9.07;;
74630;SDS011;63138;55.082;38.804;2022-11-02T14:51:40;14.00;;;7.75;;
74630;SDS011;63138;55.082;38.804;2022-11-02T14:54:16;17.75;;;9.68;;
74630;SDS011;63138;55.082;38.804;2022-11-02T15:01:58;8.70;;;5.60;;
74630;SDS011;63138;55.082;38.804;2022-11-02T15:04:26;11.18;;;7.68;;
74630;SDS011;63138;55.082;38.804;2022-11-02T15:06:55;16.17;;;9.73;;
74630;SDS011;63138;55.082;38.804;2022-11-02T15:22:40;15.23;;;9.40;;
74630;SDS011;63138;55.082;38.804;2022-11-02T15:25:26;17.27;;;9.25;;
74630;SDS011;63138;55.082;38.804;2022-11-02T15:28:02;13.05;;;6.53;;
74630;SDS011;63138;55.082;38.804;2022-11-02T15:30:30;17.75;;;7.90;;
74630;SDS011;63138;55.082;38.804;2022-11-02T15:32:58;13.18;;;7.75;;
74630;SDS011;63138;55.082;38.804;2022-11-02T15:35:35;14.20;;;7.60;;
74630;SDS011;63138;55.082;38.804;2022-11-02T15:38:04;13.30;;;6.53;;
74630;SDS011;63138;55.082;38.804;2022-11-02T15:40:50;15.52;;;8.70;;
74630;SDS011;63138;55.082;38.804;2022-11-02T15:51:55;8.98;;;5.60;;
74630;SDS011;63138;55.082;38.804;2022-11-02T15:59:54;14.85;;;6.65;;
74630;SDS011;63138;55.082;38.804;2022-11-02T16:02:26;11.27;;;5.43;;
74630;SDS011;63138;55.082;38.804;2022-11-02T16:04:57;7.88;;;4.85;;
74630;SDS011;63138;55.082;38.804;2022-11-02T16:07:26;16.67;;;6.43;;
74630;SDS011;63138;55.082;38.804;2022-11-02T16:10:09;11.13;;;6.07;;
74630;SDS011;63138;55.082;38.804;2022-11-02T16:15:43;11.60;;;6.28;;
74630;SDS011;63138;55.082;38.804;2022-11-02T16:18:23;12.10;;;5.50;;
74630;SDS011;63138;55.082;38.804;2022-11-02T16:21:01;11.35;;;6.15;;
74630;SDS011;63138;55.082;38.804;2022-11-02T16:23:31;12.50;;;6.37;;
74630;SDS011;63138;55.082;38.804;2022-11-02T16:25:59;17.23;;;8.63;;
74630;SDS011;63138;55.082;38.804;2022-11-02T16:28:28;16.50;;;8.20;;
74630;SDS011;63138;55.082;38.804;2022-11-02T16:33:40;16.85;;;7.88;;
74630;SDS011;63138;55.082;38.804;2022-11-02T16:36:15;12.20;;;6.82;;
74630;SDS011;63138;55.082;38.804;2022-11-02T16:38:50;13.05;;;7.47;;
74630;SDS011;63138;55.082;38.804;2022-11-02T16:41:38;13.95;;;5.88;;
74630;SDS011;63138;55.082;38.804;2022-11-02T16:49:33;8.30;;;5.47;;
74630;SDS011;63138;55.082;38.804;2022-11-02T16:52:24;9.20;;;5.72;;
74630;SDS011;63138;55.082;38.804;2022-11-02T16:54:55;12.45;;;5.60;;
74630;SDS011;63138;55.082;38.804;2022-11-02T16:57:22;20.83;;;7.10;;
74630;SDS011;63138;55.082;38.804;2022-11-02T16:59:57;10.95;;;6.05;;
74630;SDS011;63138;55.082;38.804;2022-11-02T17:02:38;27.42;;;11.43;;
74630;SDS011;63138;55.082;38.804;2022-11-02T17:05:12;27.40;;;11.63;;
74630;SDS011;63138;55.082;38.804;2022-11-02T17:07:41;23.08;;;9.68;;
74630;SDS011;63138;55.082;38.804;2022-11-02T17:10:19;17.30;;;7.73;;
74630;SDS011;63138;55.082;38.804;2022-11-02T17:12:52;11.73;;;5.60;;
74630;SDS011;63138;55.082;38.804;2022-11-02T17:15:20;9.40;;;4.55;;
74630;SDS011;63138;55.082;38.804;2022-11-02T17:17:47;10.27;;;5.32;;
74630;SDS011;63138;55.082;38.804;2022-11-02T17:20:15;9.13;;;4.57;;
74630;SDS011;63138;55.082;38.804;2022-11-02T17:27:51;6.93;;;3.88;;
74630;SDS011;63138;55.082;38.804;2022-11-02T17:33:00;8.03;;;4.13;;
74630;SDS011;63138;55.082;38.804;2022-11-02T17:35:33;10.02;;;3.80;;
74630;SDS011;63138;55.082;38.804;2022-11-02T17:38:00;6.57;;;3.50;;
74630;SDS011;63138;55.082;38.804;2022-11-02T17:40:26;8.65;;;4.55;;
74630;SDS011;63138;55.082;38.804;2022-11-02T17:42:55;7.63;;;4.00;;
74630;SDS011;63138;55.082;38.804;2022-11-02T17:47:59;7.35;;;3.70;;
74630;SDS011;63138;55.082;38.804;2022-11-02T17:50:27;4.85;;;3.30;;
74630;SDS011;63138;55.082;38.804;2022-11-02T17:52:55;5.40;;;3.63;;
74630;SDS011;63138;55.082;38.804;2022-11-02T17:55:26;10.60;;;4.33;;
74630;SDS011;63138;55.082;38.804;2022-11-02T17:57:54;8.02;;;3.33;;